Terminal Aerodrome Forecast
Issued by NWS Flagstaff, AZ

Home | Current Version | Previous Version | Text Only | Print | Product List | Glossary On
Versions: 1 2 3 4 5 6 7 8 9 10 11 12 13 14 15 16
000
FTUS45 KFGZ 012300
TAFFLG
TAF
KFLG 012337Z 0200/0224 VRB05KT P6SM VCTS BKN080CB OVC120
      TEMPO 0200/0203 5SM -TSRA BKN060CB
     FM020400 VRB05KT P6SM FEW070 BKN120
     FM021800 VRB06KT P6SM VCTS SCT070CB SCT150
      TEMPO 0219/0223 5SM TSRA BKN050CB=

USA.gov is the U.S. government's official web portal to all federal, state and local government web resources and services.